Time;durP1;ratioP1;P1;durP2;ratioP2;P2;SDS_P1;SDS_P2;PMS_P1;PMS_P2;Temp;Humidity;BMP_temperature;BMP_pressure;BME280_temperature;BME280_humidity;BME280_pressure;Samples;Min_cycle;Max_cycle;Signal;HPM_P1;HPM_P2
2021/07/24 00:02:21;;;;;;;17.17;10.75;;;19.10;92.70;;;;;;5058083;28;20202;-66
2021/07/24 00:04:49;;;;;;;17.17;10.68;;;19.10;92.80;;;;;;5060138;28;20219;-66
2021/07/24 00:07:16;;;;;;;21.67;11.63;;;19.10;93.00;;;;;;5062158;28;20202;-67
2021/07/24 00:09:43;;;;;;;19.17;10.73;;;19.10;93.10;;;;;;5064623;28;20210;-65
2021/07/24 00:12:13;;;;;;;16.20;11.00;;;19.10;93.10;;;;;;5068402;28;20202;-67
2021/07/24 00:14:40;;;;;;;19.63;10.88;;;19.00;93.20;;;;;;5069066;28;20202;-67
2021/07/24 00:17:07;;;;;;;22.45;11.48;;;19.00;93.30;;;;;;5068348;28;20274;-67
2021/07/24 00:19:34;;;;;;;15.70;11.52;;;19.00;93.40;;;;;;5067716;28;20215;-66
2021/07/24 00:22:02;;;;;;;18.63;11.18;;;19.00;93.40;;;;;;5065548;28;20214;-66
2021/07/24 00:24:29;;;;;;;18.75;11.40;;;19.00;93.50;;;;;;5062683;28;20211;-67
2021/07/24 00:26:56;;;;;;;19.48;11.38;;;19.00;93.60;;;;;;5061676;28;20199;-67
2021/07/24 00:29:23;;;;;;;20.30;11.68;;;19.00;93.70;;;;;;5068824;28;20295;-66
2021/07/24 00:31:49;;;;;;;18.48;11.40;;;18.90;93.80;;;;;;5047846;28;20292;-67
2021/07/24 00:34:18;;;;;;;22.08;12.48;;;18.90;93.80;;;;;;5052012;28;20562;-67
2021/07/24 00:36:46;;;;;;;21.35;12.40;;;18.90;93.90;;;;;;5065732;28;20226;-66
2021/07/24 00:39:14;;;;;;;22.60;12.43;;;18.90;94.00;;;;;;5064401;28;20277;-66
2021/07/24 00:41:44;;;;;;;21.63;12.20;;;18.90;94.00;;;;;;5066108;28;20213;-66
2021/07/24 00:44:16;;;;;;;21.98;12.45;;;18.90;94.10;;;;;;5067195;28;20217;-67
2021/07/24 00:46:44;;;;;;;18.45;12.00;;;18.80;94.10;;;;;;5065399;28;20205;-66
2021/07/24 00:49:12;;;;;;;18.73;12.50;;;18.80;94.20;;;;;;5068964;28;20257;-65
2021/07/24 00:51:55;;;;;;;23.25;12.77;;;18.80;94.30;;;;;;5050604;28;20220;-66
2021/07/24 00:54:23;;;;;;;19.92;12.30;;;18.80;94.40;;;;;;5067906;28;20199;-67
2021/07/24 00:56:51;;;;;;;19.02;11.88;;;18.80;94.40;;;;;;5064878;28;20295;-67
2021/07/24 00:59:18;;;;;;;18.02;12.23;;;18.80;94.50;;;;;;5068111;28;20711;-65
2021/07/24 01:01:46;;;;;;;20.17;11.63;;;18.70;94.50;;;;;;5050994;28;20718;-67
2021/07/24 01:04:14;;;;;;;19.23;12.13;;;18.70;94.60;;;;;;5066855;28;20655;-66
2021/07/24 01:06:43;;;;;;;20.25;11.10;;;18.70;94.70;;;;;;5049711;28;20202;-65
2021/07/24 01:09:11;;;;;;;17.20;11.18;;;18.70;94.70;;;;;;5065271;28;20207;-65
2021/07/24 01:11:40;;;;;;;21.02;11.50;;;18.70;94.80;;;;;;5064837;28;20226;-66
2021/07/24 01:14:07;;;;;;;20.73;12.23;;;18.60;94.80;;;;;;5048697;28;20297;-66
2021/07/24 01:16:34;;;;;;;19.65;11.82;;;18.60;95.20;;;;;;5046503;28;20689;-65
2021/07/24 01:19:13;;;;;;;16.25;11.45;;;18.60;94.90;;;;;;5046713;28;20571;-67
2021/07/24 01:21:51;;;;;;;19.75;11.65;;;18.60;95.00;;;;;;5048288;28;20213;-68
2021/07/24 01:24:18;;;;;;;17.42;11.90;;;18.60;95.10;;;;;;5062704;28;20199;-65
2021/07/24 01:26:47;;;;;;;18.17;11.25;;;18.60;95.10;;;;;;5047322;28;20240;-66
2021/07/24 01:29:15;;;;;;;17.48;11.48;;;18.60;95.20;;;;;;5051006;28;20217;-64
2021/07/24 01:31:43;;;;;;;20.75;12.52;;;18.60;95.20;;;;;;5043072;28;20238;-66
2021/07/24 01:34:11;;;;;;;23.75;11.90;;;18.60;95.30;;;;;;5045066;28;20207;-65
2021/07/24 01:36:38;;;;;;;24.90;12.02;;;18.50;95.40;;;;;;5041615;28;20247;-68
2021/07/24 01:39:08;;;;;;;18.65;11.40;;;18.50;95.40;;;;;;5048628;28;20202;-66
2021/07/24 01:41:35;;;;;;;18.40;11.90;;;18.50;95.50;;;;;;5058232;28;20191;-66
2021/07/24 01:44:02;;;;;;;22.35;12.20;;;18.50;95.60;;;;;;5043219;28;20301;-66
2021/07/24 01:46:29;;;;;;;18.83;12.18;;;18.50;95.70;;;;;;5056090;28;20199;-65
2021/07/24 01:52:46;;;;;;;21.30;11.88;;;18.40;95.70;;;;;;5048341;28;20218;-68
2021/07/24 01:55:03;;;;;;;20.88;12.48;;;18.40;95.70;;;;;;5058115;28;20192;-67
2021/07/24 01:57:35;;;;;;;21.35;12.77;;;18.40;95.80;;;;;;5044095;28;20229;-68
2021/07/24 02:00:09;;;;;;;22.42;13.75;;;18.40;95.80;;;;;;5050205;28;20933;-66
2021/07/24 02:02:49;;;;;;;20.35;12.75;;;18.40;95.90;;;;;;5055652;28;20203;-67
2021/07/24 02:05:29;;;;;;;18.35;12.88;;;18.40;95.90;;;;;;5043499;28;20206;-67
2021/07/24 02:08:01;;;;;;;20.08;12.63;;;18.40;96.00;;;;;;5067198;28;20210;-67
2021/07/24 02:10:29;;;;;;;17.02;12.35;;;18.40;96.00;;;;;;5064249;28;20268;-67
2021/07/24 02:13:01;;;;;;;26.52;14.38;;;18.40;96.00;;;;;;5052732;28;20206;-66
2021/07/24 02:15:30;;;;;;;18.33;13.00;;;18.40;96.00;;;;;;5063291;28;20199;-66
2021/07/24 02:17:58;;;;;;;19.77;12.05;;;18.40;96.00;;;;;;5049085;28;20202;-67
2021/07/24 02:20:26;;;;;;;23.17;13.40;;;18.40;96.00;;;;;;5047430;28;20564;-66
2021/07/24 02:22:53;;;;;;;19.65;12.13;;;18.40;96.00;;;;;;5061893;28;20198;-65
2021/07/24 02:25:20;;;;;;;20.00;12.40;;;18.40;96.00;;;;;;5048965;28;20215;-68
2021/07/24 02:27:50;;;;;;;18.80;12.77;;;18.40;96.10;;;;;;5049141;28;20205;-66
2021/07/24 02:30:18;;;;;;;19.58;11.93;;;18.40;96.00;;;;;;5046964;28;20699;-67
2021/07/24 02:32:45;;;;;;;17.38;12.10;;;18.40;96.00;;;;;;5062353;28;20203;-66
2021/07/24 02:35:14;;;;;;;22.25;12.80;;;18.40;95.90;;;;;;5048518;28;20321;-65
2021/07/24 02:38:01;;;;;;;17.50;11.95;;;18.40;95.90;;;;;;5062812;28;20616;-67
2021/07/24 02:40:28;;;;;;;18.30;11.32;;;18.30;95.80;;;;;;5064742;28;20216;-66
2021/07/24 02:43:08;;;;;;;21.52;12.05;;;18.30;95.80;;;;;;5044416;28;20206;-67
2021/07/24 02:45:35;;;;;;;18.13;11.35;;;18.40;95.80;;;;;;5063361;28;20278;-68
2021/07/24 02:48:03;;;;;;;20.88;12.60;;;18.30;95.90;;;;;;5051038;28;20202;-67
2021/07/24 02:50:34;;;;;;;17.98;11.95;;;18.30;95.70;;;;;;5045622;28;20310;-68
2021/07/24 02:53:02;;;;;;;19.95;12.00;;;18.30;95.70;;;;;;5049190;28;20614;-65
2021/07/24 02:55:31;;;;;;;21.98;13.23;;;18.30;95.70;;;;;;5045610;28;20671;-69
2021/07/24 02:57:58;;;;;;;21.05;12.23;;;18.30;95.70;;;;;;5063996;28;20202;-65
2021/07/24 03:00:26;;;;;;;20.88;12.57;;;18.30;95.60;;;;;;5061329;28;20203;-66
2021/07/24 03:02:53;;;;;;;22.48;14.32;;;18.30;95.70;;;;;;5063979;28;20202;-66
2021/07/24 03:05:20;;;;;;;27.20;15.43;;;18.30;95.70;;;;;;5059496;28;20198;-66
2021/07/24 03:07:46;;;;;;;25.13;14.60;;;18.30;95.70;;;;;;5061683;28;20203;-66
2021/07/24 03:10:13;;;;;;;24.08;14.73;;;18.20;95.80;;;;;;5061428;28;20550;-66
2021/07/24 03:12:40;;;;;;;22.80;14.20;;;18.20;95.80;;;;;;5059150;28;20803;-67
2021/07/24 03:15:07;;;;;;;30.83;16.50;;;18.20;95.90;;;;;;5061229;28;20202;-66
2021/07/24 03:17:36;;;;;;;28.27;16.83;;;18.20;96.00;;;;;;5060093;28;20206;-66
2021/07/24 03:20:05;;;;;;;23.63;14.85;;;18.20;96.00;;;;;;5062538;28;20198;-66
2021/07/24 03:22:32;;;;;;;24.17;15.27;;;18.20;96.10;;;;;;5060752;28;20213;-66
2021/07/24 03:25:00;;;;;;;28.23;15.93;;;18.20;96.10;;;;;;5045102;28;20240;-67
2021/07/24 03:27:27;;;;;;;24.08;15.40;;;18.20;96.10;;;;;;5065392;28;20206;-66
2021/07/24 03:29:54;;;;;;;24.77;15.68;;;18.20;96.10;;;;;;5063834;28;20288;-66
2021/07/24 03:32:20;;;;;;;27.58;16.58;;;18.20;96.20;;;;;;5065207;28;20251;-66
2021/07/24 03:34:48;;;;;;;26.02;15.90;;;18.20;96.20;;;;;;5064159;28;20709;-67
2021/07/24 03:37:15;;;;;;;24.25;15.10;;;18.20;96.20;;;;;;5062829;28;20615;-67
2021/07/24 03:39:42;;;;;;;27.52;15.70;;;18.20;96.30;;;;;;5064194;28;20751;-65
2021/07/24 03:42:09;;;;;;;24.55;14.05;;;18.20;96.30;;;;;;5063502;28;20198;-67
2021/07/24 03:44:36;;;;;;;27.92;15.00;;;18.20;96.40;;;;;;5068432;28;20690;-66
2021/07/24 03:47:02;;;;;;;27.92;15.35;;;18.10;96.40;;;;;;5066687;28;20672;-66
2021/07/24 03:49:29;;;;;;;26.63;16.23;;;18.10;96.40;;;;;;5067765;28;20679;-67
2021/07/24 03:51:57;;;;;;;23.08;14.05;;;18.10;96.50;;;;;;5065912;28;20252;-65
2021/07/24 03:54:24;;;;;;;19.70;12.82;;;18.10;96.50;;;;;;5068222;28;20198;-66
2021/07/24 03:56:51;;;;;;;20.88;12.45;;;18.10;96.60;;;;;;5065414;28;20249;-66
2021/07/24 03:59:18;;;;;;;21.75;13.98;;;18.10;96.60;;;;;;5070524;28;20198;-67
2021/07/24 04:01:45;;;;;;;26.30;14.32;;;18.10;96.70;;;;;;5069517;28;20217;-67
2021/07/24 04:04:13;;;;;;;26.50;14.32;;;18.10;96.60;;;;;;5067199;28;20207;-68
2021/07/24 04:06:40;;;;;;;22.45;13.02;;;18.10;96.70;;;;;;5067690;28;21273;-66
2021/07/24 04:09:08;;;;;;;20.40;11.55;;;18.10;96.80;;;;;;5065454;28;20725;-66
2021/07/24 04:11:36;;;;;;;20.75;12.75;;;18.10;96.70;;;;;;5067125;28;20241;-66
2021/07/24 04:14:04;;;;;;;19.88;12.73;;;18.10;96.70;;;;;;5067875;28;20214;-66
2021/07/24 04:16:32;;;;;;;23.15;13.98;;;18.10;96.70;;;;;;5070020;28;20199;-68
2021/07/24 04:19:00;;;;;;;24.75;13.55;;;18.10;96.80;;;;;;5066364;28;20679;-66
2021/07/24 04:21:27;;;;;;;23.17;12.88;;;18.10;96.90;;;;;;5068712;28;20666;-66
2021/07/24 04:23:54;;;;;;;18.83;11.27;;;18.10;96.90;;;;;;5067031;28;20610;-67
2021/07/24 04:26:23;;;;;;;20.67;12.20;;;18.10;96.90;;;;;;5068036;28;20265;-67
2021/07/24 04:28:50;;;;;;;19.70;12.27;;;18.10;96.90;;;;;;5045139;28;20211;-67
2021/07/24 04:31:17;;;;;;;25.73;13.30;;;18.10;97.00;;;;;;5066430;28;20731;-67
2021/07/24 04:33:44;;;;;;;21.10;10.98;;;18.10;97.00;;;;;;5066028;28;20207;-66
2021/07/24 04:36:13;;;;;;;22.42;12.85;;;18.10;97.10;;;;;;5065563;28;20568;-67
2021/07/24 04:38:40;;;;;;;18.70;12.38;;;18.10;97.10;;;;;;5065526;28;20233;-67
2021/07/24 04:41:07;;;;;;;16.45;11.20;;;18.10;97.10;;;;;;5061175;28;20252;-67
2021/07/24 04:43:35;;;;;;;19.38;11.63;;;18.20;97.20;;;;;;5063380;28;20206;-65
2021/07/24 04:46:02;;;;;;;13.70;9.65;;;18.20;97.20;;;;;;5064897;28;20252;-66
2021/07/24 04:48:29;;;;;;;17.52;10.90;;;18.20;97.20;;;;;;5064286;28;20203;-65
2021/07/24 04:50:57;;;;;;;20.60;12.63;;;18.20;97.10;;;;;;5065712;28;20351;-65
2021/07/24 04:53:25;;;;;;;17.15;11.25;;;18.30;97.10;;;;;;5063708;28;20199;-67
2021/07/24 04:55:52;;;;;;;19.02;11.43;;;18.30;97.10;;;;;;5066804;28;20285;-65
2021/07/24 04:58:21;;;;;;;22.35;12.48;;;18.30;97.10;;;;;;5068179;28;20214;-64
2021/07/24 05:00:50;;;;;;;20.55;12.30;;;18.30;97.20;;;;;;5043396;28;20780;-65
2021/07/24 05:03:18;;;;;;;20.52;12.75;;;18.40;97.20;;;;;;5065297;28;20626;-65
2021/07/24 05:05:44;;;;;;;18.08;11.63;;;18.40;97.30;;;;;;5062302;28;20590;-67
2021/07/24 05:08:12;;;;;;;23.25;13.20;;;18.40;97.30;;;;;;5062996;28;20281;-67
2021/07/24 05:10:39;;;;;;;19.45;12.10;;;18.40;97.40;;;;;;5063521;28;20221;-65
2021/07/24 05:13:06;;;;;;;22.05;13.65;;;18.40;97.40;;;;;;5063820;28;20213;-65
2021/07/24 05:15:33;;;;;;;19.98;11.80;;;18.40;97.30;;;;;;5060943;28;20233;-64
2021/07/24 05:18:01;;;;;;;25.02;14.82;;;18.40;97.30;;;;;;5063493;28;20213;-67
2021/07/24 05:20:29;;;;;;;22.60;13.30;;;18.40;97.20;;;;;;5060803;28;20198;-67
2021/07/24 05:22:57;;;;;;;21.65;13.50;;;18.40;97.20;;;;;;5044648;28;20210;-67
2021/07/24 05:25:24;;;;;;;23.73;15.23;;;18.40;97.10;;;;;;5046441;28;20210;-66
2021/07/24 05:27:51;;;;;;;25.00;15.57;;;18.50;97.10;;;;;;5065822;28;20261;-66
2021/07/24 05:30:18;;;;;;;25.23;14.52;;;18.50;97.20;;;;;;5061717;28;20215;-67
2021/07/24 05:32:44;;;;;;;22.08;14.13;;;18.50;97.20;;;;;;5039415;28;20720;-66
2021/07/24 05:35:13;;;;;;;22.00;12.88;;;18.50;97.20;;;;;;5061165;28;20249;-67
2021/07/24 05:37:39;;;;;;;21.08;12.10;;;18.60;97.30;;;;;;5055516;28;21243;-67
2021/07/24 05:40:07;;;;;;;18.17;11.13;;;18.60;97.20;;;;;;5062714;28;20198;-67
2021/07/24 05:42:34;;;;;;;19.90;11.43;;;18.60;97.20;;;;;;5065613;28;20198;-67
2021/07/24 05:45:01;;;;;;;21.63;12.02;;;18.70;97.10;;;;;;5059194;28;20206;-66
2021/07/24 05:47:30;;;;;;;17.35;9.50;;;18.70;97.00;;;;;;5051969;28;20251;-65
2021/07/24 05:49:57;;;;;;;16.35;11.57;;;18.70;96.80;;;;;;5059589;28;20584;-67
2021/07/24 05:52:25;;;;;;;22.95;10.90;;;18.80;96.70;;;;;;5055505;28;20218;-66
2021/07/24 05:54:52;;;;;;;23.80;13.65;;;18.80;96.60;;;;;;5061705;28;20637;-66
2021/07/24 05:57:19;;;;;;;25.05;15.07;;;18.90;96.50;;;;;;5063337;28;20600;-67
2021/07/24 05:59:46;;;;;;;24.23;14.55;;;18.90;96.40;;;;;;5061489;28;20286;-67
2021/07/24 06:02:14;;;;;;;25.02;14.30;;;19.00;96.40;;;;;;5045505;28;20252;-68
2021/07/24 06:04:42;;;;;;;22.50;13.48;;;19.00;96.40;;;;;;5061328;28;20202;-68
2021/07/24 06:07:09;;;;;;;19.17;13.52;;;19.00;96.20;;;;;;5063632;28;20639;-67
2021/07/24 06:09:38;;;;;;;23.60;11.63;;;19.10;96.20;;;;;;5060888;28;20215;-67
2021/07/24 06:12:05;;;;;;;20.40;12.65;;;19.10;96.10;;;;;;5065695;28;20222;-68
2021/07/24 06:14:33;;;;;;;20.30;11.65;;;19.10;96.00;;;;;;5061907;28;20248;-68
2021/07/24 06:17:00;;;;;;;16.80;10.77;;;19.20;95.90;;;;;;5064848;28;20282;-67
2021/07/24 06:19:26;;;;;;;19.33;11.57;;;19.30;95.80;;;;;;5058773;28;20209;-66
2021/07/24 06:21:53;;;;;;;16.20;10.30;;;19.30;95.70;;;;;;5062109;28;20276;-68
2021/07/24 06:24:20;;;;;;;21.52;11.98;;;19.40;95.70;;;;;;5062900;28;20712;-68
2021/07/24 06:26:48;;;;;;;20.48;12.05;;;19.50;95.70;;;;;;5059130;28;20206;-67
2021/07/24 06:29:15;;;;;;;23.23;14.07;;;19.50;95.60;;;;;;5062965;28;20211;-66
2021/07/24 06:31:42;;;;;;;24.98;14.98;;;19.60;95.40;;;;;;5058443;28;20214;-66
2021/07/24 06:34:09;;;;;;;24.15;14.18;;;19.60;95.20;;;;;;5060803;28;20202;-66
2021/07/24 06:36:39;;;;;;;23.02;13.13;;;19.60;95.10;;;;;;5061723;28;20218;-68
2021/07/24 06:39:06;;;;;;;19.90;13.52;;;19.70;94.90;;;;;;5062870;28;20194;-69
2021/07/24 06:41:34;;;;;;;19.92;10.82;;;19.80;94.70;;;;;;5059192;28;20214;-67
2021/07/24 06:44:03;;;;;;;19.15;12.63;;;19.80;94.40;;;;;;5064399;28;20566;-68
2021/07/24 06:46:30;;;;;;;20.48;12.32;;;19.80;94.20;;;;;;5061683;28;20203;-67
2021/07/24 06:48:56;;;;;;;20.48;12.77;;;19.90;94.20;;;;;;5046697;28;20298;-66
2021/07/24 06:51:26;;;;;;;18.33;10.95;;;19.90;94.20;;;;;;5059833;28;20226;-67
2021/07/24 06:53:53;;;;;;;16.30;10.05;;;19.90;94.00;;;;;;5061171;28;20209;-66
2021/07/24 06:56:19;;;;;;;14.82;9.85;;;20.00;93.80;;;;;;5064411;28;20663;-67
2021/07/24 06:58:46;;;;;;;14.43;10.27;;;20.10;93.50;;;;;;5062668;28;20212;-66
2021/07/24 07:01:14;;;;;;;23.58;11.55;;;20.10;93.30;;;;;;5059074;28;20194;-66
2021/07/24 07:03:41;;;;;;;17.38;10.27;;;20.20;93.20;;;;;;5063055;28;20207;-65
2021/07/24 07:06:08;;;;;;;19.45;11.57;;;20.20;93.20;;;;;;5062815;28;20267;-65
2021/07/24 07:08:35;;;;;;;16.77;10.40;;;20.20;93.00;;;;;;5065283;28;20206;-66
2021/07/24 07:11:03;;;;;;;19.35;11.27;;;20.30;93.00;;;;;;5061130;28;20211;-66
2021/07/24 07:13:30;;;;;;;19.25;10.80;;;20.30;93.00;;;;;;5065425;28;20202;-67
2021/07/24 07:15:57;;;;;;;18.75;12.60;;;20.30;93.00;;;;;;5062942;28;20872;-66
2021/07/24 07:18:25;;;;;;;18.15;9.88;;;20.40;92.90;;;;;;5065027;28;20208;-67
2021/07/24 07:20:52;;;;;;;17.38;11.60;;;20.40;92.80;;;;;;5067480;28;20190;-67
2021/07/24 07:23:19;;;;;;;16.08;9.32;;;20.50;92.70;;;;;;5068612;28;20209;-68
2021/07/24 07:25:46;;;;;;;15.95;9.98;;;20.60;92.50;;;;;;5066388;28;20198;-68
2021/07/24 07:28:14;;;;;;;16.90;10.40;;;20.60;92.30;;;;;;5067905;28;20276;-66
2021/07/24 07:30:40;;;;;;;17.30;9.95;;;20.70;92.20;;;;;;5066115;28;20709;-68
2021/07/24 07:33:07;;;;;;;16.60;10.68;;;20.70;92.20;;;;;;5066017;28;20205;-66
2021/07/24 07:35:35;;;;;;;19.33;11.88;;;20.80;92.00;;;;;;5063762;28;20599;-66
2021/07/24 07:38:02;;;;;;;15.77;10.45;;;20.90;91.80;;;;;;5068436;28;20654;-69
2021/07/24 07:40:36;;;;;;;23.85;12.45;;;20.90;91.60;;;;;;5048936;28;20222;-66
2021/07/24 07:43:04;;;;;;;20.83;13.43;;;21.00;91.60;;;;;;5064250;28;20198;-66
2021/07/24 07:45:31;;;;;;;21.42;12.45;;;21.10;91.70;;;;;;5065317;28;20568;-67
2021/07/24 07:47:58;;;;;;;21.85;12.07;;;21.10;91.50;;;;;;5064356;28;20202;-69
2021/07/24 07:50:25;;;;;;;16.98;10.18;;;21.20;91.40;;;;;;5044141;28;20207;-68
2021/07/24 07:53:05;;;;;;;19.08;13.68;;;21.30;91.20;;;;;;5065992;28;20198;-66
2021/07/24 07:55:32;;;;;;;19.90;12.13;;;21.30;91.10;;;;;;5068430;28;20525;-66
2021/07/24 07:58:07;;;;;;;19.75;13.27;;;21.40;90.90;;;;;;5067035;28;20628;-67
2021/07/24 08:00:35;;;;;;;26.50;13.30;;;21.50;90.70;;;;;;5065921;28;20579;-67
2021/07/24 08:03:02;;;;;;;23.63;13.52;;;21.50;90.50;;;;;;5065106;28;20198;-66
2021/07/24 08:05:29;;;;;;;21.40;14.00;;;21.60;90.40;;;;;;5063313;28;20226;-66
2021/07/24 08:07:56;;;;;;;18.83;11.90;;;21.60;90.30;;;;;;5067337;28;20263;-65
2021/07/24 08:10:24;;;;;;;22.17;12.93;;;21.60;90.30;;;;;;5066062;28;20563;-66
2021/07/24 08:12:52;;;;;;;18.75;11.52;;;21.70;90.20;;;;;;5064703;28;20230;-68
2021/07/24 08:15:20;;;;;;;17.08;12.30;;;21.70;90.00;;;;;;5067566;28;20203;-66
2021/07/24 08:17:47;;;;;;;20.13;11.85;;;21.80;90.00;;;;;;5065701;28;20206;-66
2021/07/24 08:20:14;;;;;;;20.27;10.07;;;21.80;89.90;;;;;;5069101;28;20654;-65
2021/07/24 08:22:41;;;;;;;15.75;10.70;;;21.90;89.50;;;;;;5067150;28;20568;-65
2021/07/24 08:25:09;;;;;;;18.15;11.80;;;22.00;89.10;;;;;;5069865;28;20202;-66
2021/07/24 08:27:37;;;;;;;14.52;9.18;;;22.10;88.90;;;;;;5063137;28;20367;-66
2021/07/24 08:30:04;;;;;;;17.20;10.75;;;22.20;88.60;;;;;;5065438;28;20225;-67
2021/07/24 08:32:31;;;;;;;14.57;10.45;;;22.30;88.50;;;;;;5063344;28;20222;-69
2021/07/24 08:34:58;;;;;;;19.90;11.70;;;22.40;88.40;;;;;;5066186;28;20198;-66
2021/07/24 08:37:26;;;;;;;18.77;12.23;;;22.50;88.40;;;;;;5062630;28;20207;-66
2021/07/24 08:39:53;;;;;;;16.45;11.30;;;22.70;88.20;;;;;;5068333;28;20203;-67
2021/07/24 08:42:30;;;;;;;14.85;10.65;;;22.80;87.90;;;;;;5065923;28;20194;-65
2021/07/24 08:44:59;;;;;;;15.65;11.00;;;23.00;87.20;;;;;;5067162;28;20210;-67
2021/07/24 08:47:27;;;;;;;17.63;10.93;;;23.10;86.70;;;;;;5062766;28;20195;-66
2021/07/24 08:49:54;;;;;;;16.38;11.00;;;23.30;86.00;;;;;;5048098;28;20217;-68
2021/07/24 08:52:22;;;;;;;17.98;10.98;;;23.40;85.10;;;;;;5063528;28;20218;-66
2021/07/24 08:54:49;;;;;;;13.68;9.02;;;23.50;84.60;;;;;;5062928;28;20214;-65
2021/07/24 08:57:20;;;;;;;12.75;9.65;;;23.50;84.10;;;;;;5065223;28;20209;-63
2021/07/24 08:59:47;;;;;;;13.75;9.40;;;23.50;83.50;;;;;;5062162;28;20211;-63
2021/07/24 09:02:23;;;;;;;13.02;10.15;;;23.50;83.40;;;;;;5058708;28;20237;-68
2021/07/24 09:04:52;;;;;;;19.77;11.98;;;23.50;83.30;;;;;;5062894;28;20206;-67
2021/07/24 09:07:19;;;;;;;16.40;10.35;;;23.40;83.50;;;;;;5063690;28;20722;-69
2021/07/24 09:09:49;;;;;;;19.67;10.68;;;23.40;83.70;;;;;;5062677;28;20202;-68
2021/07/24 09:12:16;;;;;;;14.10;9.90;;;23.40;83.90;;;;;;5060219;28;20227;-66
2021/07/24 09:14:42;;;;;;;15.27;11.50;;;23.30;83.90;;;;;;5064018;28;20206;-66
2021/07/24 09:17:11;;;;;;;18.52;12.85;;;23.30;84.00;;;;;;5062060;28;20215;-65
2021/07/24 09:19:40;;;;;;;16.90;11.80;;;23.20;84.40;;;;;;5065546;28;20259;-67
2021/07/24 09:22:25;;;;;;;21.02;11.43;;;23.20;84.80;;;;;;5059924;28;20281;-66
2021/07/24 09:25:08;;;;;;;23.27;12.07;;;23.10;84.90;;;;;;5061122;28;20659;-67
2021/07/24 09:27:36;;;;;;;14.05;10.32;;;23.10;85.20;;;;;;5062745;28;20217;-68
2021/07/24 09:30:03;;;;;;;16.85;11.75;;;23.10;85.10;;;;;;5061292;28;20210;-65
2021/07/24 09:32:31;;;;;;;17.85;11.43;;;23.00;85.10;;;;;;5059918;28;20214;-66
2021/07/24 09:34:59;;;;;;;15.82;9.52;;;23.00;85.20;;;;;;5057104;28;20209;-65
2021/07/24 09:37:27;;;;;;;17.50;12.70;;;23.00;85.00;;;;;;5060025;28;20194;-68
2021/07/24 09:39:55;;;;;;;17.55;12.38;;;23.00;85.20;;;;;;5047977;28;20230;-67
2021/07/24 09:42:22;;;;;;;19.08;13.18;;;23.00;85.60;;;;;;5060809;28;20288;-66
2021/07/24 09:45:05;;;;;;;16.90;10.02;;;23.00;86.00;;;;;;5062334;28;20222;-66
2021/07/24 09:47:31;;;;;;;15.32;10.13;;;23.00;85.90;;;;;;5061923;28;20203;-68
2021/07/24 09:50:12;;;;;;;19.05;10.00;;;23.00;85.90;;;;;;5056705;28;20222;-67
2021/07/24 09:52:45;;;;;;;16.17;9.85;;;23.00;85.70;;;;;;5066986;28;20218;-65
2021/07/24 09:55:23;;;;;;;18.10;10.68;;;23.10;85.60;;;;;;5066512;28;20570;-65
2021/07/24 09:57:51;;;;;;;21.92;10.23;;;23.10;85.70;;;;;;5048252;28;20665;-67
2021/07/24 10:00:23;;;;;;;19.38;12.05;;;23.10;85.50;;;;;;5062060;28;20214;-65
2021/07/24 10:02:57;;;;;;;18.83;10.75;;;23.10;85.60;;;;;;5059605;28;20187;-66
2021/07/24 10:05:35;;;;;;;17.02;11.57;;;23.20;85.60;;;;;;5066587;28;20210;-69
2021/07/24 10:08:05;;;;;;;19.90;11.43;;;23.20;85.70;;;;;;5062460;28;20234;-66
2021/07/24 10:10:35;;;;;;;18.17;12.13;;;23.30;85.90;;;;;;5063194;28;20545;-67
2021/07/24 10:13:03;;;;;;;15.45;10.57;;;23.30;85.80;;;;;;5062089;28;20219;-68
2021/07/24 10:15:35;;;;;;;16.67;12.50;;;23.40;85.60;;;;;;5066642;28;20198;-67
2021/07/24 10:18:03;;;;;;;16.13;11.30;;;23.40;85.60;;;;;;5063144;28;20199;-68
2021/07/24 10:20:31;;;;;;;16.30;11.45;;;23.40;85.50;;;;;;5061769;28;20209;-69
2021/07/24 10:22:58;;;;;;;19.98;12.77;;;23.50;85.70;;;;;;5065900;28;20255;-68
2021/07/24 10:25:26;;;;;;;18.33;13.18;;;23.50;85.80;;;;;;5064330;28;20210;-66
2021/07/24 10:27:54;;;;;;;25.92;13.10;;;23.60;86.00;;;;;;5049352;28;20206;-68
2021/07/24 10:30:28;;;;;;;18.25;10.77;;;23.60;86.10;;;;;;5064761;28;21139;-67
2021/07/24 10:32:58;;;;;;;23.08;14.30;;;23.70;85.70;;;;;;5061875;28;20214;-69
2021/07/24 10:35:38;;;;;;;22.92;14.00;;;23.70;85.50;;;;;;5063878;28;20317;-68
2021/07/24 10:38:30;;;;;;;18.05;12.20;;;23.80;85.40;;;;;;5063672;28;20206;-68
2021/07/24 10:41:21;;;;;;;20.55;13.93;;;23.80;85.00;;;;;;5062378;28;20202;-66
2021/07/24 10:43:58;;;;;;;18.33;12.30;;;23.80;84.90;;;;;;5064528;28;20202;-69
2021/07/24 10:47:13;;;;;;;21.20;13.13;;;23.80;84.60;;;;;;5059541;28;20249;-67
2021/07/24 10:50:00;;;;;;;22.02;13.80;;;23.80;84.40;;;;;;5064006;28;21027;-66
2021/07/24 10:53:09;;;;;;;20.92;14.38;;;23.80;84.50;;;;;;5062815;28;20218;-68
2021/07/24 10:55:40;;;;;;;17.58;11.85;;;23.80;84.40;;;;;;5061338;28;20703;-67
2021/07/24 10:58:07;;;;;;;20.52;14.40;;;23.70;84.50;;;;;;5065491;28;20208;-68
2021/07/24 11:00:40;;;;;;;22.60;14.60;;;23.70;84.70;;;;;;5061030;28;20259;-70
2021/07/24 11:03:31;;;;;;;24.52;13.57;;;23.70;84.70;;;;;;5060722;28;20260;-68
2021/07/24 11:05:58;;;;;;;20.13;13.60;;;23.70;85.00;;;;;;5060552;28;20210;-67
2021/07/24 11:09:15;;;;;;;24.65;14.80;;;23.70;85.00;;;;;;5064937;28;20202;-68
2021/07/24 11:11:45;;;;;;;24.10;14.15;;;23.60;85.00;;;;;;4980205;28;20212;-69
2021/07/24 11:14:57;;;;;;;25.05;15.40;;;23.60;85.30;;;;;;4981515;28;20227;-69
2021/07/24 11:17:25;;;;;;;23.55;15.68;;;23.60;85.70;;;;;;5045831;28;20206;-69
2021/07/24 11:20:33;;;;;;;23.23;13.63;;;23.60;86.10;;;;;;5064575;28;20569;-68
2021/07/24 11:23:05;;;;;;;23.30;15.13;;;23.60;86.30;;;;;;5063642;28;20194;-69
2021/07/24 11:25:37;;;;;;;23.38;15.23;;;23.60;86.60;;;;;;5062792;28;20264;-70
2021/07/24 11:28:06;;;;;;;23.55;14.48;;;23.70;86.80;;;;;;5063623;28;20603;-69
2021/07/24 11:30:33;;;;;;;21.25;13.40;;;23.70;86.70;;;;;;5062676;28;20206;-69
2021/07/24 11:33:00;;;;;;;16.75;11.50;;;23.80;86.70;;;;;;5062669;28;20218;-67
2021/07/24 11:35:30;;;;;;;21.83;13.50;;;23.80;86.30;;;;;;5058359;28;20591;-71
2021/07/24 11:37:57;;;;;;;23.88;14.57;;;23.90;86.20;;;;;;5060927;28;20203;-69
2021/07/24 11:40:27;;;;;;;23.33;13.60;;;23.90;86.30;;;;;;5064732;28;20210;-71
2021/07/24 11:43:02;;;;;;;25.05;14.80;;;23.90;86.30;;;;;;5063063;28;20201;-70
2021/07/24 11:45:32;;;;;;;21.88;13.77;;;24.00;86.10;;;;;;5047436;28;20221;-70
2021/07/24 11:48:12;;;;;;;17.92;12.80;;;24.00;86.00;;;;;;5063351;28;20209;-70
2021/07/24 11:50:40;;;;;;;26.10;15.35;;;24.00;85.80;;;;;;5066379;28;20217;-68
2021/07/24 11:53:07;;;;;;;23.00;15.25;;;24.00;85.80;;;;;;5061170;28;20302;-69
2021/07/24 11:55:35;;;;;;;23.50;15.07;;;24.10;86.00;;;;;;5049421;28;20194;-69
2021/07/24 11:58:03;;;;;;;19.95;14.43;;;24.10;85.90;;;;;;5064165;28;20202;-71
2021/07/24 12:00:33;;;;;;;23.55;15.57;;;24.10;85.90;;;;;;5064110;28;20218;-70
2021/07/24 12:03:14;;;;;;;24.40;16.33;;;24.10;85.90;;;;;;5040284;28;20202;-70
2021/07/24 12:05:42;;;;;;;23.85;13.93;;;24.10;85.70;;;;;;5058322;28;20210;-70
2021/07/24 12:08:09;;;;;;;26.23;15.63;;;24.10;85.60;;;;;;5046810;28;20214;-64
2021/07/24 12:10:38;;;;;;;25.00;14.98;;;24.10;85.50;;;;;;5067081;28;20708;-69
2021/07/24 12:13:06;;;;;;;23.40;15.15;;;24.10;85.40;;;;;;5066480;28;20230;-68
2021/07/24 12:16:00;;;;;;;18.67;13.68;;;24.10;85.40;;;;;;5061633;28;20222;-68
2021/07/24 12:18:28;;;;;;;20.90;14.40;;;24.10;85.30;;;;;;5048352;28;20736;-67
2021/07/24 12:21:10;;;;;;;24.48;15.05;;;24.10;85.50;;;;;;5064331;28;20521;-67
2021/07/24 12:23:42;;;;;;;21.88;15.35;;;24.10;85.50;;;;;;5065399;28;20252;-64
2021/07/24 12:26:14;;;;;;;22.45;14.90;;;24.00;85.70;;;;;;5064880;28;20281;-68
2021/07/24 12:28:42;;;;;;;24.58;15.18;;;24.00;86.00;;;;;;5064328;28;20663;-67
2021/07/24 12:31:22;;;;;;;20.27;13.10;;;24.10;86.00;;;;;;5066288;28;20539;-66
2021/07/24 12:33:50;;;;;;;21.70;13.90;;;24.10;85.80;;;;;;5062123;28;20271;-67
2021/07/24 12:36:19;;;;;;;24.33;14.50;;;24.10;85.70;;;;;;5065440;28;20234;-67
2021/07/24 12:38:46;;;;;;;25.13;15.43;;;24.10;85.80;;;;;;5063298;28;20225;-67
2021/07/24 12:41:13;;;;;;;25.33;15.70;;;24.10;86.00;;;;;;5066501;28;20199;-68
2021/07/24 12:43:42;;;;;;;23.70;15.23;;;24.00;86.30;;;;;;5062310;28;20328;-67
2021/07/24 12:46:18;;;;;;;26.48;16.40;;;24.00;86.30;;;;;;5062813;28;20199;-69